Date,TemperatureHighF,TemperatureAvgF,TemperatureLowF,DewpointHighF,DewpointAvgF,DewpointLowF,HumidityHigh,HumidityAvg,HumidityLow,PressureMaxIn,PressureMinIn,WindSpeedMaxMPH,WindSpeedAvgMPH,GustSpeedMaxMPH,PrecipitationSumIn
2013-3-1,36,29,21,-100,-100,-100,0,0,100,0.00,40.00,0,-999,0,0.01
2013-3-2,43,35,29,-100,-100,-100,0,0,100,0.00,40.00,0,-999,0,0.01
2013-3-3,38,30,13,-100,-100,-100,0,0,100,0.00,40.00,0,-999,0,0.00
2013-3-4,13,8,2,-100,-100,-100,0,0,100,0.00,40.00,0,-999,0,0.00
2013-3-5,33,21,4,-100,-100,-100,0,0,100,0.00,40.00,0,-999,0,0.01
2013-3-6,42,32,22,-100,-100,-100,0,0,100,0.00,40.00,0,-999,0,0.01
2013-3-7,37,28,20,-100,-100,-100,0,0,100,0.00,40.00,0,-999,0,0.00
2013-3-8,43,31,21,-100,-100,-100,0,0,100,0.00,40.00,0,-999,0,0.00
2013-3-9,26,20,14,-100,-100,-100,0,0,100,0.00,40.00,0,-999,0,0.00
2013-3-10,42,26,7,-100,-100,-100,0,0,100,0.00,40.00,0,-999,0,0.00
2013-3-11,28,22,12,-100,-100,-100,0,0,100,0.00,40.00,0,-999,0,0.01
2013-3-12,34,23,11,-100,-100,-100,0,0,100,0.00,40.00,0,-999,0,0.01
2013-3-13,43,36,28,-100,-100,-100,0,0,100,0.00,40.00,0,-999,0,0.01
2013-3-14,47,41,30,-100,-100,-100,0,0,100,0.00,40.00,0,-999,0,0.00
2013-3-15,45,38,28,-100,-100,-100,0,0,100,0.00,40.00,0,-999,0,0.00
2013-3-16,35,29,26,-100,-100,-100,0,0,100,0.00,40.00,0,-999,0,0.00
2013-3-17,31,22,12,-100,-100,-100,0,0,100,0.00,40.00,0,-999,0,0.00
2013-3-18,20,14,9,-100,-100,-100,0,0,100,0.00,40.00,0,-999,0,0.01
2013-3-19,22,17,10,-100,-100,-100,0,0,100,0.00,40.00,0,-999,0,0.01
2013-3-20,40,30,15,-100,-100,-100,0,0,100,0.00,40.00,0,-999,0,0.01
2013-3-21,33,23,11,-100,-100,-100,0,0,100,0.00,40.00,0,-999,0,0.00
2013-3-22,20,12,4,-100,-100,-100,0,0,100,0.00,40.00,0,-999,0,0.01
2013-3-23,20,5,-9,-100,-100,-100,0,0,100,0.00,40.00,0,-999,0,0.01
2013-3-24,10,5,-1,-100,-100,-100,0,0,100,0.00,40.00,0,-999,0,0.00
2013-3-25,33,16,-5,-100,-100,-100,0,0,100,0.00,40.00,0,-999,0,0.01
2013-3-26,37,25,14,-100,-100,-100,0,0,100,0.00,40.00,0,-999,0,0.01
2013-3-27,43,27,14,-100,-100,-100,0,0,100,0.00,40.00,0,-999,0,0.00
2013-3-28,44,34,24,-100,-100,-100,0,0,100,0.00,40.00,0,-999,0,0.01
2013-3-29,44,37,29,-100,-100,-100,0,0,100,0.00,40.00,0,-999,0,0.00
2013-3-30,36,31,27,-100,-100,-100,0,0,100,0.00,40.00,0,-999,0,0.00
2013-3-31,41,32,23,-100,-100,-100,0,0,100,0.00,40.00,0,-999,0,0.00